North Kingstown, RI

4:18 PM EST on February 27, 2015 (GMT -0500)
Wickford | Change Station
CLOSE
Current Station
Personal Weather Station
Location: North Kingstown, RI
Elevation: 110 ft
Nearby Weather Stations

Elev 110 ft 41.57 °N, 71.47 °W | Updated 10 seconds ago

Clear
Clear
29.1 °F
Feels Like 24 °F
N
4.9
Wind Variable Wind from SE
Gusts 5.0 mph

Today
High -- | Low -- °F
--% Chance of Precip.
Yesterday
High -- | Low -- °F
Precip. -- in
6:24 AM 5:33 PM
Waxing Gibbous, 71% visible
Pressure 30.36 in
Visibility 10.0 miles
Clouds Few 2500 ft
Few 30000 ft
Windchill 24 °F
Dew Point 15 °F
Humidity 55%
Rainfall 0.00 in
Snow Depth Not available.
UV 0.0 out of 12
Pollen .40 out of 12
Air Quality Not available.
Flu Activity Not available.
METAR KPVD 272051Z 30004KT 10SM FEW025 FEW300 M02/M17 A3035 RMK AO2 SLP279 T10171167 53010

More Conditions Fewer Conditions

Pressure 30.36 in
Visibility 10.0 miles
Clouds Few 2500 ft
Few 30000 ft
Windchill 24 °F
Dew Point 15 °F
Humidity 55%
Rainfall 0.00 in
Snow Depth Not available.
UV 0.0 out of 12
Pollen .40 out of 12
Air Quality Not available.
Flu Activity Not available.
METAR KPVD 272051Z 30004KT 10SM FEW025 FEW300 M02/M17 A3035 RMK AO2 SLP279 T10171167 53010

More Conditions Fewer Conditions

10-Day Weather Forecast

Almanac

Astronomy

Feb. 27, 2015 Rise Set
Actual Time
Civil Twilight
Nautical Twilight
Astronomical Twilight
Moon
Length of Visible Light
Length of Day
Tomorrow will be .
, % of the Moon is Illuminated

Today's Extremes

State Highs State Lows

Community

WunderPhotos

Upload Photos

1,800,828 photos uploaded!

WunderBlogs® & News

Nearby

Air Quality

  Air Quality AQ Index Pollutant
Not available.

Snow Depth

Station Depth Elevation

Earthquake Activity

City Distance Mag. Time & Date
Minimum magnitude displayed is 2.5.

Coastal Water Temperatures

Place Temperature

Nearby Weather Stations